Connector — WDJ4962 — position and weather

sailwx.info

Track history (hours):
 
Tides and Currents Weather Stations Pressure Air Temp Water Temp Dewpoint Dewpoint Depression Visibility Wind Speed Wind Dir Waves Ship Positions

Connector

Owner: HNY Ferry Fleet LLC, New York, NY. More information available from US FCC via Universal Licensing System and Coast Guard Vessel Documentation Center.

Last reported at 2018-Jul-22 22:32 UTC. Time now 2018-Jul-23 17:18 UTC.
Position N 40°42' W 073°58'.

Length 26 m; draft 2 m.

Type: Passenger vessel. MMSI: 367782880.

Date/timePositionNaut miles runAvg speedWind from/ knotsBaromVisibWave heightAir tempDewpointWater temp
2018-Jul-22 22:32N 40°42' W 073°58'0 4.8
2018-Jul-22 22:31N 40°42' W 073°58'2 3.4
2018-Jul-22 22:01N 40°44' W 073°58'3 4.6
2018-Jul-22 21:24N 40°46' W 073°56'3 6.5
2018-Jul-22 20:58N 40°44' W 073°58'0 0.2
2018-Jul-22 19:32N 40°44' W 073°58'122.3
2018-Jul-22 19:30N 40°43' W 073°58'1 1.1
2018-Jul-22 18:55N 40°43' W 073°58'1 0.0
2018-Jul-20 23:50N 40°42' W 073°58'0 0.0
2018-Jul-20 23:30N 40°42' W 073°58'2 3.0
2018-Jul-20 23:00N 40°42' W 074°00'611.6
2018-Jul-20 22:30N 40°37' W 074°02'8 9.2
2018-Jul-20 21:41N 40°34' W 073°53'419.6
2018-Jul-20 21:29N 40°34' W 073°57'612.7
2018-Jul-20 21:00N 40°39' W 074°02'1 1.7
2018-Jul-20 20:31N 40°40' W 074°01'713.0
2018-Jul-20 20:00N 40°34' W 073°58'4 8.1
2018-Jul-20 19:28N 40°35' W 073°52'818.0
2018-Jul-20 19:00N 40°36' W 074°02'612.0
2018-Jul-20 18:30N 40°42' W 074°00'611.8
2018-Jul-20 18:01N 40°37' W 074°02'810.9
2018-Jul-20 17:15N 40°35' W 073°52'521.2
2018-Jul-20 17:01N 40°34' W 073°59'713.3
2018-Jul-20 16:31N 40°40' W 074°01'3 5.7
2018-Jul-20 16:00N 40°42' W 073°58'0 0.0
2018-Jul-20 01:08N 40°42' W 073°58'0 3.9
2018-Jul-20 01:01N 40°42' W 073°59'0 0.3
2018-Jul-19 23:43N 40°42' W 073°58'1 7.1
2018-Jul-19 23:31N 40°42' W 074°00'611.2
2018-Jul-19 23:00N 40°37' W 074°03'1016.7
2018-Jul-19 22:25N 40°35' W 073°50'511.9
2018-Jul-19 22:00N 40°34' W 073°56'612.9
2018-Jul-19 21:30N 40°39' W 074°02'4 8.4
2018-Jul-19 21:00N 40°42' W 073°58'2 4.3
2018-Jul-19 20:30N 40°41' W 074°01'713.9
2018-Jul-19 20:00N 40°34' W 073°60'6 8.6
2018-Jul-19 19:20N 40°35' W 073°52'619.1
2018-Jul-19 19:00N 40°34' W 074°01'613.1
2018-Jul-19 18:31N 40°41' W 074°01'2 3.5
2018-Jul-19 18:00N 40°42' W 074°00'2 3.0
2018-Jul-19 17:29N 40°42' W 073°58'0 0.1
2018-Jul-19 15:05N 40°42' W 073°58'112.2
2018-Jul-19 15:00N 40°42' W 073°60'3 6.0
2018-Jul-19 14:30N 40°45' W 073°57'3 3.5
2018-Jul-19 13:30N 40°42' W 074°00'4 7.4
2018-Jul-19 13:01N 40°45' W 073°57'0 0.6
2018-Jul-19 12:31N 40°45' W 073°57'4 8.0
2018-Jul-19 12:00N 40°42' W 074°00'4 8.0
2018-Jul-19 11:30N 40°45' W 073°57'2 4.6
2018-Jul-19 11:01N 40°43' W 073°58'1 0.1
2018-Jul-19 02:49N 40°42' W 073°58'1 4.0
2018-Jul-19 02:29N 40°43' W 073°58'2 4.3
2018-Jul-19 02:00N 40°45' W 073°57'4 8.2
2018-Jul-19 01:31N 40°42' W 074°00'4 8.0
2018-Jul-19 01:00N 40°45' W 073°57'0 0.3
2018-Jul-19 00:30N 40°45' W 073°57'4 7.8
2018-Jul-19 00:00N 40°42' W 074°00'4 7.5
2018-Jul-18 23:30N 40°45' W 073°57'0 0.6
2018-Jul-18 23:00N 40°45' W 073°57'3 7.0
2018-Jul-18 22:31N 40°42' W 074°00'4 7.9
2018-Jul-18 22:00N 40°45' W 073°57'1 1.2
2018-Jul-18 21:30N 40°45' W 073°57'3 6.9
2018-Jul-18 21:00N 40°42' W 074°00'3 5.9
2018-Jul-18 20:31N 40°45' W 073°58'2 4.5
2018-Jul-18 20:00N 40°46' W 073°56'3 6.5
2018-Jul-18 19:31N 40°43' W 073°58'1 2.4
2018-Jul-18 19:00N 40°45' W 073°58'2 4.5
2018-Jul-18 18:30N 40°46' W 073°56'3 6.9
2018-Jul-18 18:01N 40°43' W 073°58'1 2.2
2018-Jul-18 17:30N 40°42' W 073°58'0 0.0
2018-Jul-18 02:30N 40°42' W 073°58'3 6.6
2018-Jul-18 02:00N 40°45' W 073°57'4 8.1
2018-Jul-18 01:30N 40°42' W 074°00'4 7.7
2018-Jul-18 00:59N 40°45' W 073°57'0 0.1
2018-Jul-18 00:30N 40°45' W 073°57'4 8.0
2018-Jul-18 00:01N 40°42' W 074°00'4 7.5
2018-Jul-17 23:30N 40°45' W 073°57'0 0.3
2018-Jul-17 22:58N 40°45' W 073°57'4 8.3
2018-Jul-17 22:30N 40°42' W 074°00'5 8.7
2018-Jul-17 21:54N 40°46' W 073°56'2 4.4
2018-Jul-17 21:30N 40°45' W 073°57'3 6.9
2018-Jul-17 21:00N 40°42' W 074°00'3 5.4
2018-Jul-17 20:28N 40°45' W 073°58'2 4.7
2018-Jul-17 19:59N 40°46' W 073°56'3 6.7
2018-Jul-17 19:30N 40°43' W 073°58'1 2.5
2018-Jul-17 19:00N 40°45' W 073°58'2 4.4
2018-Jul-17 18:30N 40°46' W 073°56'3 6.4
2018-Jul-17 18:01N 40°44' W 073°58'1 2.0
2018-Jul-17 17:28N 40°45' W 073°58'2 3.6
2018-Jul-17 16:56N 40°46' W 073°56'3 6.8
2018-Jul-17 16:31N 40°44' W 073°58'1 2.0
2018-Jul-17 15:57N 40°45' W 073°58'2 4.4
2018-Jul-17 15:27N 40°46' W 073°56'3 7.1
2018-Jul-17 15:00N 40°43' W 073°58'2 4.2
2018-Jul-17 14:30N 40°42' W 074°00'0 0.1
2018-Jul-17 14:00N 40°42' W 074°00'2 3.0
2018-Jul-17 13:30N 40°42' W 073°58'2 3.8
2018-Jul-17 13:01N 40°44' W 073°58'2 3.6
2018-Jul-17 12:30N 40°42' W 073°58'0 0.0
2018-Jul-17 12:00N 40°42' W 073°58'1 2.1
2018-Jul-17 11:30N 40°43' W 073°58'4 6.8
2018-Jul-17 10:59N 40°46' W 073°56'5 9.4
2018-Jul-17 10:30N 40°42' W 073°58'0 0.0
2018-Jul-17 10:00N 40°42' W 073°58'0 0.0
2018-Jul-17 01:43N 40°42' W 073°58'311.9
2018-Jul-17 01:30N 40°45' W 073°58'0 0.0
2018-Jul-17 01:00N 40°45' W 073°58'3 5.2
2018-Jul-17 00:30N 40°42' W 073°60'1 1.3
2018-Jul-16 23:31N 40°43' W 073°58'4 7.1
2018-Jul-16 23:00N 40°46' W 073°56'2 4.6
2018-Jul-16 22:30N 40°45' W 073°58'1 1.6
2018-Jul-16 22:01N 40°44' W 073°58'3 5.1
2018-Jul-16 21:26N 40°46' W 073°56'2 5.6
2018-Jul-16 21:00N 40°44' W 073°58'2 4.2
2018-Jul-16 20:31N 40°42' W 073°59'1 2.7
2018-Jul-16 20:00N 40°42' W 074°00'3 5.8
2018-Jul-16 19:30N 40°45' W 073°58'2 4.7
2018-Jul-16 19:01N 40°42' W 073°59'0 0.4
2018-Jul-16 18:31N 40°42' W 073°58'0 0.0
2018-Jul-16 18:00N 40°42' W 073°58'1 2.9
2018-Jul-16 17:31N 40°42' W 074°00'1 1.9
2018-Jul-16 17:01N 40°41' W 074°01'3 6.4
2018-Jul-16 16:30N 40°38' W 074°02'3 5.5
2018-Jul-16 16:01N 40°41' W 074°01'3 5.3
2018-Jul-16 15:31N 40°43' W 073°58'2 3.2
2018-Jul-16 15:00N 40°42' W 074°00'4 7.2
2018-Jul-16 14:30N 40°45' W 073°57'1 1.1
2018-Jul-16 14:00N 40°45' W 073°57'4 8.5
2018-Jul-16 13:31N 40°42' W 074°00'4 7.9
2018-Jul-16 13:00N 40°45' W 073°57'0 0.1
2018-Jul-16 12:30N 40°45' W 073°57'4 8.3
2018-Jul-16 12:00N 40°42' W 074°00'4 8.1
2018-Jul-16 11:30N 40°45' W 073°57'3 6.9
2018-Jul-16 11:01N 40°42' W 073°58'0 0.4
2018-Jul-16 10:31N 40°42' W 073°58'0 0.0
2018-Jul-15 01:32N 40°42' W 073°58'0 0.0
2018-Jul-15 01:30N 40°42' W 073°58'1 1.7
2018-Jul-15 01:01N 40°42' W 073°59'2 3.6
2018-Jul-15 00:31N 40°44' W 073°58'3 5.5
2018-Jul-15 00:00N 40°46' W 073°56'2 4.8
2018-Jul-14 23:31N 40°45' W 073°58'0 0.1
2018-Jul-14 23:00N 40°45' W 073°58'2 4.3
2018-Jul-14 22:29N 40°46' W 073°56'3 6.0
2018-Jul-14 22:01N 40°44' W 073°58'1 1.4
2018-Jul-14 21:30N 40°45' W 073°58'2 4.4
2018-Jul-14 20:58N 40°46' W 073°56'4 7.8
2018-Jul-14 20:31N 40°43' W 073°58'2 3.2
2018-Jul-14 20:01N 40°45' W 073°58'2 4.5
2018-Jul-14 19:31N 40°46' W 073°56'4 8.6
2018-Jul-14 19:00N 40°42' W 073°59'2 4.7
2018-Jul-14 18:31N 40°45' W 073°58'1 2.5
2018-Jul-14 17:58N 40°46' W 073°57'4 9.2
2018-Jul-14 17:30N 40°42' W 074°00'3 6.7
2018-Jul-14 17:00N 40°45' W 073°57'1 1.8
2018-Jul-14 16:30N 40°46' W 073°57'4 8.7
2018-Jul-14 16:00N 40°42' W 074°00'3 6.8
2018-Jul-14 15:30N 40°45' W 073°57'1 1.7
2018-Jul-14 15:00N 40°46' W 073°57'1 0.8
2018-Jul-14 14:00N 40°45' W 073°57'1 1.4
2018-Jul-14 13:30N 40°46' W 073°57'4 8.5
2018-Jul-14 13:01N 40°42' W 074°00'3 6.9
2018-Jul-14 12:30N 40°45' W 073°57'1 1.4
2018-Jul-14 12:00N 40°46' W 073°57'4 8.5
2018-Jul-14 11:31N 40°42' W 074°00'3 6.9
2018-Jul-14 11:01N 40°45' W 073°57'1 2.4
2018-Jul-14 10:31N 40°44' W 073°58'2 3.5
2018-Jul-14 10:01N 40°42' W 073°58'0 0.0
2018-Jul-14 02:41N 40°42' W 073°58'1 4.6
2018-Jul-14 02:30N 40°43' W 073°58'2 4.3
2018-Jul-14 02:01N 40°45' W 073°57'3 6.9
2018-Jul-14 01:30N 40°42' W 074°00'4 7.5
2018-Jul-14 01:00N 40°45' W 073°57'0 0.5
2018-Jul-14 00:30N 40°45' W 073°57'4 8.0
2018-Jul-14 00:00N 40°42' W 074°00'4 7.9
2018-Jul-13 23:30N 40°45' W 073°57'0 0.1
2018-Jul-13 23:00N 40°45' W 073°57'4 8.0
2018-Jul-13 22:30N 40°42' W 074°00'4 7.8
2018-Jul-13 21:59N 40°45' W 073°57'1 1.3
2018-Jul-13 21:30N 40°45' W 073°57'3 6.9
2018-Jul-13 21:01N 40°42' W 074°00'3 5.9
2018-Jul-13 20:30N 40°45' W 073°58'2 4.5
2018-Jul-13 20:00N 40°46' W 073°56'4 8.5
2018-Jul-13 19:31N 40°43' W 073°59'2 4.3
2018-Jul-13 19:00N 40°45' W 073°58'2 4.4
2018-Jul-13 18:30N 40°46' W 073°56'3 7.0
2018-Jul-13 18:00N 40°43' W 073°58'2 3.0
2018-Jul-13 17:30N 40°45' W 073°58'2 4.5
2018-Jul-13 17:00N 40°46' W 073°56'4 7.7
2018-Jul-13 16:30N 40°43' W 073°58'2 3.2
2018-Jul-13 15:56N 40°45' W 073°58'2 5.1
2018-Jul-13 15:30N 40°46' W 073°56'3 6.3
2018-Jul-13 15:00N 40°44' W 073°58'2 2.0
2018-Jul-13 13:59N 40°45' W 073°57'1 1.1
2018-Jul-13 13:30N 40°45' W 073°57'4 7.1
2018-Jul-13 13:00N 40°42' W 074°00'4 8.7
2018-Jul-13 12:30N 40°46' W 073°57'1 2.1
2018-Jul-13 12:01N 40°45' W 073°57'3 5.1
2018-Jul-13 11:31N 40°43' W 073°59'4 7.7
2018-Jul-13 11:00N 40°46' W 073°57'4 8.4
2018-Jul-13 10:31N 40°42' W 073°58'0 0.0
2018-Jul-13 02:18N 40°42' W 073°58'2 5.2
2018-Jul-13 02:00N 40°42' W 074°00'4 7.3
2018-Jul-13 01:30N 40°45' W 073°57'0 0.4
2018-Jul-13 01:01N 40°45' W 073°57'3 6.9
2018-Jul-13 00:30N 40°42' W 074°00'4 7.9
2018-Jul-13 00:00N 40°45' W 073°57'0 0.9
2018-Jul-12 23:30N 40°45' W 073°57'3 7.0
2018-Jul-12 23:00N 40°42' W 074°00'  
Track history (hours):
 
Tides and Currents Weather Stations Pressure Air Temp Water Temp Dewpoint Dewpoint Depression Visibility Wind Speed Wind Dir Waves Ship Positions

Connector

Owner: HNY Ferry Fleet LLC, New York, NY. More information available from US FCC via Universal Licensing System and Coast Guard Vessel Documentation Center.

Last reported at 2018-Jul-22 22:32 UTC. Time now 2018-Jul-23 17:18 UTC.
Position N 40°42' W 073°58'.

Length 26 m; draft 2 m.

Type: Passenger vessel. MMSI: 367782880.

Date/timePositionNaut miles runAvg speedWind from/ knotsBaromVisibWave heightAir tempDewpointWater temp
2018-Jul-22 22:32N 40°42' W 073°58'0 4.8
2018-Jul-22 22:31N 40°42' W 073°58'2 3.4
2018-Jul-22 22:01N 40°44' W 073°58'3 4.6
2018-Jul-22 21:24N 40°46' W 073°56'3 6.5
2018-Jul-22 20:58N 40°44' W 073°58'0 0.2
2018-Jul-22 19:32N 40°44' W 073°58'122.3
2018-Jul-22 19:30N 40°43' W 073°58'1 1.1
2018-Jul-22 18:55N 40°43' W 073°58'1 0.0
2018-Jul-20 23:50N 40°42' W 073°58'0 0.0
2018-Jul-20 23:30N 40°42' W 073°58'2 3.0
2018-Jul-20 23:00N 40°42' W 074°00'611.6
2018-Jul-20 22:30N 40°37' W 074°02'8 9.2
2018-Jul-20 21:41N 40°34' W 073°53'419.6
2018-Jul-20 21:29N 40°34' W 073°57'612.7
2018-Jul-20 21:00N 40°39' W 074°02'1 1.7
2018-Jul-20 20:31N 40°40' W 074°01'713.0
2018-Jul-20 20:00N 40°34' W 073°58'4 8.1
2018-Jul-20 19:28N 40°35' W 073°52'818.0
2018-Jul-20 19:00N 40°36' W 074°02'612.0
2018-Jul-20 18:30N 40°42' W 074°00'611.8
2018-Jul-20 18:01N 40°37' W 074°02'810.9
2018-Jul-20 17:15N 40°35' W 073°52'521.2
2018-Jul-20 17:01N 40°34' W 073°59'713.3
2018-Jul-20 16:31N 40°40' W 074°01'3 5.7
2018-Jul-20 16:00N 40°42' W 073°58'0 0.0
2018-Jul-20 01:08N 40°42' W 073°58'0 3.9
2018-Jul-20 01:01N 40°42' W 073°59'0 0.3
2018-Jul-19 23:43N 40°42' W 073°58'1 7.1
2018-Jul-19 23:31N 40°42' W 074°00'611.2
2018-Jul-19 23:00N 40°37' W 074°03'1016.7
2018-Jul-19 22:25N 40°35' W 073°50'511.9
2018-Jul-19 22:00N 40°34' W 073°56'612.9
2018-Jul-19 21:30N 40°39' W 074°02'4 8.4
2018-Jul-19 21:00N 40°42' W 073°58'2 4.3
2018-Jul-19 20:30N 40°41' W 074°01'713.9
2018-Jul-19 20:00N 40°34' W 073°60'6 8.6
2018-Jul-19 19:20N 40°35' W 073°52'619.1
2018-Jul-19 19:00N 40°34' W 074°01'613.1
2018-Jul-19 18:31N 40°41' W 074°01'2 3.5
2018-Jul-19 18:00N 40°42' W 074°00'2 3.0
2018-Jul-19 17:29N 40°42' W 073°58'0 0.1
2018-Jul-19 15:05N 40°42' W 073°58'112.2
2018-Jul-19 15:00N 40°42' W 073°60'3 6.0
2018-Jul-19 14:30N 40°45' W 073°57'3 3.5
2018-Jul-19 13:30N 40°42' W 074°00'4 7.4
2018-Jul-19 13:01N 40°45' W 073°57'0 0.6
2018-Jul-19 12:31N 40°45' W 073°57'4 8.0
2018-Jul-19 12:00N 40°42' W 074°00'4 8.0
2018-Jul-19 11:30N 40°45' W 073°57'2 4.6
2018-Jul-19 11:01N 40°43' W 073°58'1 0.1
2018-Jul-19 02:49N 40°42' W 073°58'1 4.0
2018-Jul-19 02:29N 40°43' W 073°58'2 4.3
2018-Jul-19 02:00N 40°45' W 073°57'4 8.2
2018-Jul-19 01:31N 40°42' W 074°00'4 8.0
2018-Jul-19 01:00N 40°45' W 073°57'0 0.3
2018-Jul-19 00:30N 40°45' W 073°57'4 7.8
2018-Jul-19 00:00N 40°42' W 074°00'4 7.5
2018-Jul-18 23:30N 40°45' W 073°57'0 0.6
2018-Jul-18 23:00N 40°45' W 073°57'3 7.0
2018-Jul-18 22:31N 40°42' W 074°00'4 7.9
2018-Jul-18 22:00N 40°45' W 073°57'1 1.2
2018-Jul-18 21:30N 40°45' W 073°57'3 6.9
2018-Jul-18 21:00N 40°42' W 074°00'3 5.9
2018-Jul-18 20:31N 40°45' W 073°58'2 4.5
2018-Jul-18 20:00N 40°46' W 073°56'3 6.5
2018-Jul-18 19:31N 40°43' W 073°58'1 2.4
2018-Jul-18 19:00N 40°45' W 073°58'2 4.5
2018-Jul-18 18:30N 40°46' W 073°56'3 6.9
2018-Jul-18 18:01N 40°43' W 073°58'1 2.2
2018-Jul-18 17:30N 40°42' W 073°58'0 0.0
2018-Jul-18 02:30N 40°42' W 073°58'3 6.6
2018-Jul-18 02:00N 40°45' W 073°57'4 8.1
2018-Jul-18 01:30N 40°42' W 074°00'4 7.7
2018-Jul-18 00:59N 40°45' W 073°57'0 0.1
2018-Jul-18 00:30N 40°45' W 073°57'4 8.0
2018-Jul-18 00:01N 40°42' W 074°00'4 7.5
2018-Jul-17 23:30N 40°45' W 073°57'0 0.3
2018-Jul-17 22:58N 40°45' W 073°57'4 8.3
2018-Jul-17 22:30N 40°42' W 074°00'5 8.7
2018-Jul-17 21:54N 40°46' W 073°56'2 4.4
2018-Jul-17 21:30N 40°45' W 073°57'3 6.9
2018-Jul-17 21:00N 40°42' W 074°00'3 5.4
2018-Jul-17 20:28N 40°45' W 073°58'2 4.7
2018-Jul-17 19:59N 40°46' W 073°56'3 6.7
2018-Jul-17 19:30N 40°43' W 073°58'1 2.5
2018-Jul-17 19:00N 40°45' W 073°58'2 4.4
2018-Jul-17 18:30N 40°46' W 073°56'3 6.4
2018-Jul-17 18:01N 40°44' W 073°58'1 2.0
2018-Jul-17 17:28N 40°45' W 073°58'2 3.6
2018-Jul-17 16:56N 40°46' W 073°56'3 6.8
2018-Jul-17 16:31N 40°44' W 073°58'1 2.0
2018-Jul-17 15:57N 40°45' W 073°58'2 4.4
2018-Jul-17 15:27N 40°46' W 073°56'3 7.1
2018-Jul-17 15:00N 40°43' W 073°58'2 4.2
2018-Jul-17 14:30N 40°42' W 074°00'0 0.1
2018-Jul-17 14:00N 40°42' W 074°00'2 3.0
2018-Jul-17 13:30N 40°42' W 073°58'2 3.8
2018-Jul-17 13:01N 40°44' W 073°58'2 3.6
2018-Jul-17 12:30N 40°42' W 073°58'0 0.0
2018-Jul-17 12:00N 40°42' W 073°58'1 2.1
2018-Jul-17 11:30N 40°43' W 073°58'4 6.8
2018-Jul-17 10:59N 40°46' W 073°56'5 9.4
2018-Jul-17 10:30N 40°42' W 073°58'0 0.0
2018-Jul-17 10:00N 40°42' W 073°58'0 0.0
2018-Jul-17 01:43N 40°42' W 073°58'311.9
2018-Jul-17 01:30N 40°45' W 073°58'0 0.0
2018-Jul-17 01:00N 40°45' W 073°58'3 5.2
2018-Jul-17 00:30N 40°42' W 073°60'1 1.3
2018-Jul-16 23:31N 40°43' W 073°58'4 7.1
2018-Jul-16 23:00N 40°46' W 073°56'2 4.6
2018-Jul-16 22:30N 40°45' W 073°58'1 1.6
2018-Jul-16 22:01N 40°44' W 073°58'3 5.1
2018-Jul-16 21:26N 40°46' W 073°56'2 5.6
2018-Jul-16 21:00N 40°44' W 073°58'2 4.2
2018-Jul-16 20:31N 40°42' W 073°59'1 2.7
2018-Jul-16 20:00N 40°42' W 074°00'3 5.8
2018-Jul-16 19:30N 40°45' W 073°58'2 4.7
2018-Jul-16 19:01N 40°42' W 073°59'0 0.4
2018-Jul-16 18:31N 40°42' W 073°58'0 0.0
2018-Jul-16 18:00N 40°42' W 073°58'1 2.9
2018-Jul-16 17:31N 40°42' W 074°00'1 1.9
2018-Jul-16 17:01N 40°41' W 074°01'3 6.4
2018-Jul-16 16:30N 40°38' W 074°02'3 5.5
2018-Jul-16 16:01N 40°41' W 074°01'3 5.3
2018-Jul-16 15:31N 40°43' W 073°58'2 3.2
2018-Jul-16 15:00N 40°42' W 074°00'4 7.2
2018-Jul-16 14:30N 40°45' W 073°57'1 1.1
2018-Jul-16 14:00N 40°45' W 073°57'4 8.5
2018-Jul-16 13:31N 40°42' W 074°00'4 7.9
2018-Jul-16 13:00N 40°45' W 073°57'0 0.1
2018-Jul-16 12:30N 40°45' W 073°57'4 8.3
2018-Jul-16 12:00N 40°42' W 074°00'4 8.1
2018-Jul-16 11:30N 40°45' W 073°57'3 6.9
2018-Jul-16 11:01N 40°42' W 073°58'0 0.4
2018-Jul-16 10:31N 40°42' W 073°58'0 0.0
2018-Jul-15 01:32N 40°42' W 073°58'0 0.0
2018-Jul-15 01:30N 40°42' W 073°58'1 1.7
2018-Jul-15 01:01N 40°42' W 073°59'2 3.6
2018-Jul-15 00:31N 40°44' W 073°58'3 5.5
2018-Jul-15 00:00N 40°46' W 073°56'2 4.8
2018-Jul-14 23:31N 40°45' W 073°58'0 0.1
2018-Jul-14 23:00N 40°45' W 073°58'2 4.3
2018-Jul-14 22:29N 40°46' W 073°56'3 6.0
2018-Jul-14 22:01N 40°44' W 073°58'1 1.4
2018-Jul-14 21:30N 40°45' W 073°58'2 4.4
2018-Jul-14 20:58N 40°46' W 073°56'4 7.8
2018-Jul-14 20:31N 40°43' W 073°58'2 3.2
2018-Jul-14 20:01N 40°45' W 073°58'2 4.5
2018-Jul-14 19:31N 40°46' W 073°56'4 8.6
2018-Jul-14 19:00N 40°42' W 073°59'2 4.7
2018-Jul-14 18:31N 40°45' W 073°58'1 2.5
2018-Jul-14 17:58N 40°46' W 073°57'4 9.2
2018-Jul-14 17:30N 40°42' W 074°00'3 6.7
2018-Jul-14 17:00N 40°45' W 073°57'1 1.8
2018-Jul-14 16:30N 40°46' W 073°57'4 8.7
2018-Jul-14 16:00N 40°42' W 074°00'3 6.8
2018-Jul-14 15:30N 40°45' W 073°57'1 1.7
2018-Jul-14 15:00N 40°46' W 073°57'1 0.8
2018-Jul-14 14:00N 40°45' W 073°57'1 1.4
2018-Jul-14 13:30N 40°46' W 073°57'4 8.5
2018-Jul-14 13:01N 40°42' W 074°00'3 6.9
2018-Jul-14 12:30N 40°45' W 073°57'1 1.4
2018-Jul-14 12:00N 40°46' W 073°57'4 8.5
2018-Jul-14 11:31N 40°42' W 074°00'3 6.9
2018-Jul-14 11:01N 40°45' W 073°57'1 2.4
2018-Jul-14 10:31N 40°44' W 073°58'2 3.5
2018-Jul-14 10:01N 40°42' W 073°58'0 0.0
2018-Jul-14 02:41N 40°42' W 073°58'1 4.6
2018-Jul-14 02:30N 40°43' W 073°58'2 4.3
2018-Jul-14 02:01N 40°45' W 073°57'3 6.9
2018-Jul-14 01:30N 40°42' W 074°00'4 7.5
2018-Jul-14 01:00N 40°45' W 073°57'0 0.5
2018-Jul-14 00:30N 40°45' W 073°57'4 8.0
2018-Jul-14 00:00N 40°42' W 074°00'4 7.9
2018-Jul-13 23:30N 40°45' W 073°57'0 0.1
2018-Jul-13 23:00N 40°45' W 073°57'4 8.0
2018-Jul-13 22:30N 40°42' W 074°00'4 7.8
2018-Jul-13 21:59N 40°45' W 073°57'1 1.3
2018-Jul-13 21:30N 40°45' W 073°57'3 6.9
2018-Jul-13 21:01N 40°42' W 074°00'3 5.9
2018-Jul-13 20:30N 40°45' W 073°58'2 4.5
2018-Jul-13 20:00N 40°46' W 073°56'4 8.5
2018-Jul-13 19:31N 40°43' W 073°59'2 4.3
2018-Jul-13 19:00N 40°45' W 073°58'2 4.4
2018-Jul-13 18:30N 40°46' W 073°56'3 7.0
2018-Jul-13 18:00N 40°43' W 073°58'2 3.0
2018-Jul-13 17:30N 40°45' W 073°58'2 4.5
2018-Jul-13 17:00N 40°46' W 073°56'4 7.7
2018-Jul-13 16:30N 40°43' W 073°58'2 3.2
2018-Jul-13 15:56N 40°45' W 073°58'2 5.1
2018-Jul-13 15:30N 40°46' W 073°56'3 6.3
2018-Jul-13 15:00N 40°44' W 073°58'2 2.0
2018-Jul-13 13:59N 40°45' W 073°57'1 1.1
2018-Jul-13 13:30N 40°45' W 073°57'4 7.1
2018-Jul-13 13:00N 40°42' W 074°00'4 8.7
2018-Jul-13 12:30N 40°46' W 073°57'1 2.1
2018-Jul-13 12:01N 40°45' W 073°57'3 5.1
2018-Jul-13 11:31N 40°43' W 073°59'4 7.7
2018-Jul-13 11:00N 40°46' W 073°57'4 8.4
2018-Jul-13 10:31N 40°42' W 073°58'0 0.0
2018-Jul-13 02:18N 40°42' W 073°58'2 5.2
2018-Jul-13 02:00N 40°42' W 074°00'4 7.3
2018-Jul-13 01:30N 40°45' W 073°57'0 0.4
2018-Jul-13 01:01N 40°45' W 073°57'3 6.9
2018-Jul-13 00:30N 40°42' W 074°00'4 7.9
2018-Jul-13 00:00N 40°45' W 073°57'0 0.9
2018-Jul-12 23:30N 40°45' W 073°57'3 7.0
2018-Jul-12 23:00N 40°42' W 074°00'  

Dump ship's entire track history